Etusivu
METAR-TAF:

METAR-TAF

Lentoasemat :

Loreto, Meksiko

Leveyspiiri: 26-01N, Pituuspiiri: 111-21W, korkeus merenpinnasta: 15 m

Tämänhetkinen sää

Tämä raportti tehtiin 11 tuntia ja 25 minuuttia sitten, kello 01.40 UTC
Tuuli 14 kn pohjoisesta/koillisesta
Lämpötila 19°C
Kosteus 60%
Ilmanpaine 1014 hPa
Näkyvyys: 12.9 km
Hajonneita pilviä 24000 ft:n korkeudessa

METAR: MMLT 290140Z 02014KT 8SM BKN240 19/11 A2993 RMK 8/006 HZY

Aika: 06:05 (13:05 UTC)

Sääennuste

Tämä raportti tehtiin 8 tuntia ja 13 minuuttia sitten, kello 04.52 UTC
Ennuste voimassa 29. päivästä klo 06 UTC - 30. päivään klo 06 UTC
Tuuli 5 kn luoteesta
Näkyvyys: 10 km
Hajonneita pilviä 24000 ft:n korkeudessa
Tulossa
29. päivästä klo 18 UTC - 29. päivään klo 19 UTC
Tuuli 12 kn koillisesta
From 30. päivästä klo 0000 UTC
Tuuli 5 kn pohjoisen/luoteesta
Näkyvyys: 10 km
Hajonneita pilviä 24000 ft:n korkeudessa

TAF: MMLT 290452Z 2906/3006 32005KT P6SM BKN240 BECMG 2918/2919 04012KT FM300000 34005KT P6SM BKN240

Säähavainnot ja -ennusteet yli 4000 lentoasemalta (METAR- ja TAF-raportit).

Käytössä olevat sääasemat on merkitty karttaan keltaisilla ja punaisilla pisteillä.

Aseta hiiri pisteen päälle nähdäksesi sääaseman nimen.

Klikkaa sitten nähdäksesi säähavainnot ja -ennusteet.

Kartan vaihtaminen: klikkaa mustalla rastilla varustettuja vihreitä pisteitä, niin voit zoomata sisään; viivalla varustettua vihreää pistettä, niin voit zoomata ulos tai vihreitä nuolia, niin pääset viereisille kartoille.


METAR-TAF: